createdAt,value
2022-09-09T00:01:25.028Z,100217.69
2022-09-09T00:03:51.256Z,100211.38
2022-09-09T00:06:17.475Z,100214.97
2022-09-09T00:08:43.632Z,100213.91
2022-09-09T00:11:09.838Z,100213.47
2022-09-09T00:13:35.982Z,100218.09
2022-09-09T00:16:02.257Z,100217.69
2022-09-09T00:18:28.558Z,100222.31
2022-09-09T00:20:54.936Z,100214.66
2022-09-09T00:23:21.108Z,100215.16
2022-09-09T00:25:50.733Z,100207.59
2022-09-09T00:28:18.472Z,100202.75
2022-09-09T00:30:44.626Z,100206.00
2022-09-09T00:33:13.818Z,100204.25
2022-09-09T00:35:40.223Z,100204.03
2022-09-09T00:38:06.407Z,100193.28
2022-09-09T00:40:32.564Z,100197.41
2022-09-09T00:42:58.701Z,100201.09
2022-09-09T00:45:24.854Z,100205.91
2022-09-09T00:47:51.045Z,100206.44
2022-09-09T00:50:17.370Z,100203.16
2022-09-09T00:52:43.595Z,100200.66
2022-09-09T00:55:09.762Z,100197.91
2022-09-09T00:57:35.938Z,100209.06
2022-09-09T01:00:02.097Z,100206.94
2022-09-09T01:02:28.374Z,100211.88
2022-09-09T01:04:54.550Z,100210.81
2022-09-09T01:07:20.682Z,100212.19
2022-09-09T01:09:46.889Z,100210.50
2022-09-09T01:12:13.190Z,100213.44
2022-09-09T01:14:39.392Z,100213.56
2022-09-09T01:17:05.729Z,100203.16
2022-09-09T01:19:31.976Z,100205.44
2022-09-09T01:21:58.127Z,100209.97
2022-09-09T01:24:24.304Z,100217.22
2022-09-09T01:26:50.495Z,100219.97
2022-09-09T01:29:16.655Z,100216.31
2022-09-09T01:31:42.765Z,100210.09
2022-09-09T01:34:08.972Z,100212.72
2022-09-09T01:36:35.154Z,100208.81
2022-09-09T01:39:01.370Z,100218.25
2022-09-09T01:41:27.543Z,100218.88
2022-09-09T01:43:53.687Z,100219.97
2022-09-09T01:46:21.952Z,100212.88
2022-09-09T01:48:48.127Z,100218.25
2022-09-09T01:51:14.300Z,100217.97
2022-09-09T01:53:40.457Z,100214.03
2022-09-09T01:56:06.600Z,100219.28
2022-09-09T01:58:32.819Z,100220.75
2022-09-09T02:00:59.300Z,100217.78
2022-09-09T02:03:25.476Z,100212.41
2022-09-09T02:05:51.616Z,100209.78
2022-09-09T02:08:17.773Z,100210.75
2022-09-09T02:10:44.052Z,100212.94
2022-09-09T02:13:10.259Z,100217.97
2022-09-09T02:15:36.403Z,100220.41
2022-09-09T02:18:02.745Z,100215.03
2022-09-09T02:20:31.407Z,100215.03
2022-09-09T02:23:00.755Z,100220.06
2022-09-09T02:25:26.944Z,100219.94
2022-09-09T02:27:53.086Z,100226.06
2022-09-09T02:30:19.314Z,100217.31
2022-09-09T02:32:45.685Z,100220.91
2022-09-09T02:35:11.893Z,100218.28
2022-09-09T02:37:38.055Z,100225.31
2022-09-09T02:40:04.450Z,100219.94
2022-09-09T02:42:30.713Z,100213.50
2022-09-09T02:44:56.863Z,100224.97
2022-09-09T02:47:22.993Z,100225.81
2022-09-09T02:49:49.106Z,100217.53
2022-09-09T02:52:15.209Z,100220.28
2022-09-09T02:54:41.340Z,100213.66
2022-09-09T02:57:07.483Z,100210.63
2022-09-09T02:59:33.606Z,100202.00
2022-09-09T03:01:59.770Z,100201.84
2022-09-09T03:04:25.990Z,100200.72
2022-09-09T03:06:52.140Z,100191.78
2022-09-09T03:09:18.265Z,100199.28
2022-09-09T03:11:44.389Z,100202.44
2022-09-09T03:14:10.523Z,100209.72
2022-09-09T03:16:36.809Z,100206.66
2022-09-09T03:19:02.986Z,100203.69
2022-09-09T03:21:29.156Z,100205.38
2022-09-09T03:23:55.367Z,100204.03
2022-09-09T03:26:21.488Z,100199.91
2022-09-09T03:28:47.624Z,100209.59
2022-09-09T03:31:13.804Z,100215.59
2022-09-09T03:33:39.973Z,100222.53
2022-09-09T03:36:06.121Z,100216.63
2022-09-09T03:38:32.329Z,100209.19
2022-09-09T03:40:58.496Z,100196.88
2022-09-09T03:43:24.674Z,100201.53
2022-09-09T03:45:50.855Z,100213.19
2022-09-09T03:48:17.000Z,100208.03
2022-09-09T03:50:43.151Z,100216.53
2022-09-09T03:53:09.282Z,100214.56
2022-09-09T03:55:35.397Z,100209.50
2022-09-09T03:58:01.550Z,100210.66
2022-09-09T04:00:27.682Z,100211.91
2022-09-09T04:02:53.811Z,100216.19
2022-09-09T04:05:20.083Z,100224.59
2022-09-09T04:07:46.203Z,100227.38
2022-09-09T04:10:12.363Z,100220.63
2022-09-09T04:12:38.491Z,100219.22
2022-09-09T04:15:04.648Z,100211.56
2022-09-09T04:17:30.776Z,100222.91
2022-09-09T04:19:56.963Z,100225.22
2022-09-09T04:22:23.117Z,100221.41
2022-09-09T04:24:49.303Z,100221.41
2022-09-09T04:27:15.461Z,100224.78
2022-09-09T04:29:41.632Z,100225.28
2022-09-09T04:32:07.851Z,100226.88
2022-09-09T04:34:34.033Z,100224.13
2022-09-09T04:37:00.195Z,100225.06
2022-09-09T04:39:26.441Z,100232.03
2022-09-09T04:41:52.562Z,100226.25
2022-09-09T04:44:18.670Z,100231.91
2022-09-09T04:46:44.805Z,100240.16
2022-09-09T04:49:14.914Z,100242.03
2022-09-09T04:51:41.300Z,100239.50
2022-09-09T04:54:07.633Z,100244.03
2022-09-09T04:56:33.779Z,100238.16
2022-09-09T04:58:59.928Z,100244.34
2022-09-09T05:01:26.107Z,100247.69
2022-09-09T05:03:52.271Z,100247.69
2022-09-09T05:06:19.090Z,100245.69
2022-09-09T05:08:45.196Z,100253.81
2022-09-09T05:11:11.309Z,100253.69
2022-09-09T05:13:41.363Z,100248.63
2022-09-09T05:16:07.775Z,100252.31
2022-09-09T05:18:34.149Z,100254.84
2022-09-09T05:21:00.321Z,100256.84
2022-09-09T05:23:26.461Z,100255.81
2022-09-09T05:25:52.653Z,100262.38
2022-09-09T05:28:18.823Z,100258.09
2022-09-09T05:30:44.937Z,100269.53
2022-09-09T05:33:11.093Z,100261.75
2022-09-09T05:35:37.202Z,100269.19
2022-09-09T05:38:03.526Z,100267.81
2022-09-09T05:40:29.702Z,100276.44
2022-09-09T05:42:55.860Z,100281.75
2022-09-09T05:45:21.970Z,100283.94
2022-09-09T05:47:48.096Z,100285.28
2022-09-09T05:50:14.259Z,100281.19
2022-09-09T05:52:40.488Z,100274.00
2022-09-09T05:55:06.660Z,100278.06
2022-09-09T05:57:32.784Z,100278.00
2022-09-09T05:59:58.919Z,100281.94
2022-09-09T06:02:25.181Z,100292.63
2022-09-09T06:04:51.358Z,100284.72
2022-09-09T06:07:17.533Z,100282.00
2022-09-09T06:09:43.668Z,100280.56
2022-09-09T06:12:09.810Z,100275.50
2022-09-09T06:14:35.940Z,100280.91
2022-09-09T06:17:02.089Z,100270.84
2022-09-09T06:19:28.257Z,100278.19
2022-09-09T06:21:54.382Z,100283.66
2022-09-09T06:24:20.538Z,100280.50
2022-09-09T06:26:46.685Z,100280.03
2022-09-09T06:29:12.829Z,100277.63
2022-09-09T06:31:39.015Z,100279.78
2022-09-09T06:34:05.271Z,100270.94
2022-09-09T06:36:31.453Z,100282.81
2022-09-09T06:38:57.565Z,100287.75
2022-09-09T06:41:23.670Z,100283.41
2022-09-09T06:43:49.816Z,100291.81
2022-09-09T06:46:15.994Z,100290.38
2022-09-09T06:48:42.130Z,100302.47
2022-09-09T06:51:08.262Z,100295.63
2022-09-09T06:53:34.392Z,100295.63
2022-09-09T06:56:00.542Z,100285.44
2022-09-09T06:58:26.666Z,100294.91
2022-09-09T07:00:52.870Z,100294.19
2022-09-09T07:03:19.051Z,100299.44
2022-09-09T07:05:45.205Z,100303.53
2022-09-09T07:08:11.322Z,100306.78
2022-09-09T07:10:37.489Z,100297.69
2022-09-09T07:13:03.668Z,100315.66
2022-09-09T07:15:29.790Z,100298.19
2022-09-09T07:17:55.944Z,100302.16
2022-09-09T07:20:22.117Z,100290.81
2022-09-09T07:22:48.323Z,100292.69
2022-09-09T07:25:14.473Z,100288.19
2022-09-09T07:27:40.631Z,100292.25
2022-09-09T07:30:06.780Z,100284.72
2022-09-09T07:32:32.929Z,100286.84
2022-09-09T07:34:59.066Z,100288.88
2022-09-09T07:37:25.269Z,100292.53
2022-09-09T07:39:51.416Z,100287.22
2022-09-09T07:42:17.618Z,100296.41
2022-09-09T07:44:43.818Z,100291.91
2022-09-09T07:47:09.951Z,100293.13
2022-09-09T07:49:36.070Z,100292.94
2022-09-09T07:52:02.242Z,100296.38
2022-09-09T07:54:28.444Z,100295.03
2022-09-09T07:56:54.561Z,100308.69
2022-09-09T07:59:20.722Z,100305.47
2022-09-09T08:01:46.906Z,100296.63
2022-09-09T08:04:13.031Z,100291.88
2022-09-09T08:06:39.185Z,100285.22
2022-09-09T08:09:05.322Z,100301.31
2022-09-09T08:11:35.361Z,100298.25
2022-09-09T08:14:04.334Z,100301.63
2022-09-09T08:16:30.509Z,100305.66
2022-09-09T08:18:56.648Z,100303.31
2022-09-09T08:21:22.772Z,100309.19
2022-09-09T08:23:48.930Z,100307.78
2022-09-09T08:26:15.075Z,100306.00
2022-09-09T08:28:41.199Z,100306.38
2022-09-09T08:31:07.463Z,100325.50
2022-09-09T08:33:33.713Z,100322.66
2022-09-09T08:36:02.203Z,100322.22
2022-09-09T08:38:28.336Z,100317.69
2022-09-09T08:40:54.463Z,100320.00
2022-09-09T08:43:20.615Z,100323.13
2022-09-09T08:45:46.788Z,100326.78
2022-09-09T08:48:12.915Z,100320.06
2022-09-09T08:50:39.068Z,100318.16
2022-09-09T08:53:05.199Z,100327.69
2022-09-09T08:55:31.323Z,100319.78
2022-09-09T08:57:57.462Z,100319.50
2022-09-09T09:00:23.617Z,100313.91
2022-09-09T09:02:49.741Z,100309.00
2022-09-09T09:05:15.880Z,100322.16
2022-09-09T09:07:42.009Z,100326.59
2022-09-09T09:10:24.293Z,100325.50
2022-09-09T09:12:54.289Z,100317.91
2022-09-09T09:15:20.411Z,100312.53
2022-09-09T09:17:46.529Z,100308.81
2022-09-09T09:20:12.678Z,100323.84
2022-09-09T09:22:38.799Z,100320.06
2022-09-09T09:25:04.928Z,100318.38
2022-09-09T09:27:31.065Z,100331.25
2022-09-09T09:30:21.498Z,100319.03
2022-09-09T09:32:43.322Z,100311.91
2022-09-09T09:35:09.430Z,100306.69
2022-09-09T09:37:35.932Z,100309.16
2022-09-09T09:42:33.447Z,100314.09
2022-09-09T09:44:59.595Z,100301.22
2022-09-09T09:47:25.793Z,100305.13
2022-09-09T09:49:51.914Z,100314.59
2022-09-09T09:52:18.035Z,100316.72
2022-09-09T09:54:44.167Z,100312.31
2022-09-09T09:57:10.345Z,100324.00
2022-09-09T09:59:39.545Z,100319.16
2022-09-09T10:02:06.302Z,100331.22
2022-09-09T10:04:32.500Z,100347.53
2022-09-09T10:06:58.673Z,100350.38
2022-09-09T10:09:24.826Z,100342.72
2022-09-09T10:11:50.928Z,100341.31
2022-09-09T10:14:17.095Z,100342.53
2022-09-09T10:16:43.245Z,100326.06
2022-09-09T10:19:09.375Z,100323.22
2022-09-09T10:21:35.628Z,100325.00
2022-09-09T10:24:01.767Z,100311.75
2022-09-09T10:26:27.872Z,100316.34
2022-09-09T10:28:54.013Z,100310.34
2022-09-09T10:31:20.204Z,100308.72
2022-09-09T10:33:46.381Z,100308.38
2022-09-09T10:36:12.509Z,100305.47
2022-09-09T10:38:38.652Z,100303.94
2022-09-09T10:41:04.769Z,100305.19
2022-09-09T10:43:30.916Z,100289.66
2022-09-09T10:45:57.133Z,100290.59
2022-09-09T10:48:23.332Z,100277.97
2022-09-09T10:51:05.366Z,100276.19
2022-09-09T10:53:31.786Z,100270.75
2022-09-09T10:55:58.030Z,100276.00
2022-09-09T10:58:24.186Z,100274.63
2022-09-09T11:00:52.042Z,100266.59
2022-09-09T11:03:20.990Z,100271.66
2022-09-09T11:05:47.137Z,100276.13
2022-09-09T11:08:13.397Z,100277.50
2022-09-09T11:10:39.614Z,100279.84
2022-09-09T11:13:05.733Z,100265.47
2022-09-09T11:15:31.913Z,100262.22
2022-09-09T11:17:58.064Z,100258.38
2022-09-09T11:20:24.199Z,100260.16
2022-09-09T11:22:50.366Z,100261.56
2022-09-09T11:25:16.542Z,100264.31
2022-09-09T11:27:42.683Z,100258.66
2022-09-09T11:30:08.800Z,100257.50
2022-09-09T11:32:34.979Z,100261.47
2022-09-09T11:35:01.157Z,100270.00
2022-09-09T11:37:27.285Z,100255.38
2022-09-09T11:39:53.479Z,100265.19
2022-09-09T11:42:19.622Z,100252.00
2022-09-09T11:44:45.752Z,100249.81
2022-09-09T11:47:12.916Z,100244.72
2022-09-09T11:49:39.080Z,100241.84
2022-09-09T11:52:05.199Z,100238.94
2022-09-09T11:54:31.365Z,100243.06
2022-09-09T11:56:57.499Z,100239.13
2022-09-09T11:59:23.786Z,100238.19
2022-09-09T12:01:49.992Z,100236.88
2022-09-09T12:04:21.282Z,100238.72
2022-09-09T12:06:48.297Z,100233.97
2022-09-09T12:09:14.476Z,100251.44
2022-09-09T12:11:40.598Z,100241.56
2022-09-09T12:14:06.775Z,100233.38
2022-09-09T12:16:32.997Z,100248.78
2022-09-09T12:18:59.467Z,100245.78
2022-09-09T12:21:25.623Z,100242.00
2022-09-09T12:23:51.743Z,100260.47
2022-09-09T12:26:17.898Z,100258.34
2022-09-09T12:28:44.022Z,100251.59
2022-09-09T12:31:10.945Z,100243.00
2022-09-09T12:33:37.300Z,100244.69
2022-09-09T12:36:03.457Z,100234.84
2022-09-09T12:38:29.618Z,100239.56
2022-09-09T12:40:55.729Z,100231.94
2022-09-09T12:43:21.867Z,100228.44
2022-09-09T12:45:48.013Z,100232.63
2022-09-09T12:48:14.262Z,100231.75
2022-09-09T12:50:40.451Z,100229.59
2022-09-09T12:53:06.567Z,100228.28
2022-09-09T12:55:32.784Z,100226.25
2022-09-09T12:57:58.908Z,100224.63
2022-09-09T13:00:25.034Z,100229.31
2022-09-09T13:02:51.208Z,100220.28
2022-09-09T13:05:17.352Z,100220.75
2022-09-09T13:07:43.546Z,100227.09
2022-09-09T13:10:09.666Z,100239.84
2022-09-09T13:12:35.768Z,100234.28
2022-09-09T13:15:02.424Z,100249.53
2022-09-09T13:17:28.644Z,100252.78
2022-09-09T13:19:54.765Z,100269.22
2022-09-09T13:22:20.876Z,100271.38
2022-09-09T13:24:47.005Z,100275.81
2022-09-09T13:27:13.118Z,100285.88
2022-09-09T13:29:39.284Z,100282.06
2022-09-09T13:32:05.441Z,100283.78
2022-09-09T13:34:31.568Z,100269.16
2022-09-09T13:37:00.007Z,100269.03
2022-09-09T13:39:26.171Z,100270.34
2022-09-09T13:41:52.283Z,100265.63
2022-09-09T13:44:18.445Z,100263.78
2022-09-09T13:46:44.612Z,100274.56
2022-09-09T13:49:10.742Z,100269.22
2022-09-09T13:51:36.859Z,100270.56
2022-09-09T13:54:03.167Z,100264.13
2022-09-09T13:56:29.287Z,100265.38
2022-09-09T13:58:55.414Z,100256.38
2022-09-09T14:01:22.901Z,100251.00
2022-09-09T14:03:51.364Z,100259.44
2022-09-09T14:06:17.518Z,100251.31
2022-09-09T14:08:43.677Z,100248.91
2022-09-09T14:11:09.808Z,100242.47
2022-09-09T14:13:35.971Z,100235.38
2022-09-09T14:16:02.190Z,100236.28
2022-09-09T14:18:28.361Z,100230.69
2022-09-09T14:20:54.487Z,100223.03
2022-09-09T14:23:23.370Z,100220.13
2022-09-09T14:25:49.547Z,100202.81
2022-09-09T14:28:15.691Z,100203.56
2022-09-09T14:30:41.934Z,100191.47
2022-09-09T14:33:08.071Z,100199.19
2022-09-09T14:35:34.223Z,100202.91
2022-09-09T14:38:00.382Z,100195.84
2022-09-09T14:40:26.530Z,100210.03
2022-09-09T14:42:52.671Z,100218.03
2022-09-09T14:45:18.799Z,100213.06
2022-09-09T14:47:44.942Z,100223.53
2022-09-09T14:50:11.063Z,100231.00
2022-09-09T14:52:37.172Z,100226.94
2022-09-09T14:55:03.306Z,100234.81
2022-09-09T14:57:29.436Z,100242.88
2022-09-09T14:59:55.583Z,100247.22
2022-09-09T15:02:21.753Z,100237.59
2022-09-09T15:04:47.931Z,100249.88
2022-09-09T15:07:14.078Z,100244.88
2022-09-09T15:09:40.194Z,100236.91
2022-09-09T15:12:06.341Z,100231.06
2022-09-09T15:14:32.467Z,100248.34
2022-09-09T15:16:58.611Z,100244.44
2022-09-09T15:19:24.722Z,100258.41
2022-09-09T15:21:50.858Z,100266.19
2022-09-09T15:24:17.042Z,100277.69
2022-09-09T15:26:43.183Z,100263.63
2022-09-09T15:29:09.380Z,100275.28
2022-09-09T15:31:35.679Z,100306.53
2022-09-09T15:34:01.914Z,100283.72
2022-09-09T15:36:28.240Z,100290.00
2022-09-09T15:41:44.572Z,100279.59
2022-09-09T15:44:10.698Z,100269.50
2022-09-09T15:46:36.853Z,100279.38
2022-09-09T15:49:04.540Z,100265.66
2022-09-09T15:51:42.328Z,100264.22
2022-09-09T15:54:09.625Z,100270.06
2022-09-09T15:56:35.787Z,100266.81
2022-09-09T15:59:01.933Z,100274.44
2022-09-09T16:01:28.170Z,100281.22
2022-09-09T16:03:54.339Z,100279.03
2022-09-09T16:06:20.598Z,100278.53
2022-09-09T16:08:46.936Z,100287.88
2022-09-09T16:11:13.210Z,100281.22
2022-09-09T16:13:39.348Z,100288.63
2022-09-09T16:16:05.594Z,100288.53
2022-09-09T16:18:31.807Z,100302.47
2022-09-09T16:20:57.930Z,100292.66
2022-09-09T16:23:24.070Z,100295.28
2022-09-09T16:25:50.230Z,100290.25
2022-09-09T16:28:16.414Z,100286.47
2022-09-09T16:30:42.554Z,100287.19
2022-09-09T16:33:08.698Z,100281.31
2022-09-09T16:35:34.817Z,100284.56
2022-09-09T16:38:01.453Z,100287.78
2022-09-09T16:40:27.843Z,100286.13
2022-09-09T16:42:54.007Z,100280.59
2022-09-09T16:45:20.162Z,100287.53
2022-09-09T16:47:46.263Z,100294.63
2022-09-09T16:50:12.374Z,100288.75
2022-09-09T16:52:38.536Z,100291.25
2022-09-09T16:55:04.702Z,100281.78
2022-09-09T16:57:30.829Z,100282.97
2022-09-09T16:59:57.111Z,100294.69
2022-09-09T17:02:23.367Z,100293.84
2022-09-09T17:04:49.643Z,100293.84
2022-09-09T17:07:15.820Z,100299.03
2022-09-09T17:09:41.925Z,100300.56
2022-09-09T17:12:08.047Z,100311.72
2022-09-09T17:14:34.183Z,100310.31
2022-09-09T17:17:13.948Z,100313.56
2022-09-09T17:19:45.332Z,100304.56
2022-09-09T17:22:17.150Z,100302.91
2022-09-09T17:24:43.596Z,100293.78
2022-09-09T17:27:09.730Z,100298.69
2022-09-09T17:29:35.870Z,100311.72
2022-09-09T17:32:02.008Z,100312.59
2022-09-09T17:34:28.183Z,100319.50
2022-09-09T17:37:01.624Z,100316.63
2022-09-09T17:39:27.773Z,100315.28
2022-09-09T17:41:53.907Z,100316.56
2022-09-09T17:44:20.107Z,100319.41
2022-09-09T17:46:46.578Z,100315.19
2022-09-09T17:49:12.771Z,100305.97
2022-09-09T17:51:38.921Z,100314.50
2022-09-09T17:54:05.036Z,100312.66
2022-09-09T17:56:31.198Z,100302.47
2022-09-09T17:58:57.353Z,100310.28
2022-09-09T18:01:23.524Z,100310.00
2022-09-09T18:03:49.724Z,100311.25
2022-09-09T18:06:15.888Z,100308.97
2022-09-09T18:08:42.046Z,100315.09
2022-09-09T18:11:08.164Z,100317.72
2022-09-09T18:13:34.275Z,100322.94
2022-09-09T18:16:00.689Z,100331.00
2022-09-09T18:18:26.856Z,100336.09
2022-09-09T18:20:53.007Z,100363.97
2022-09-09T18:23:19.167Z,100390.38
2022-09-09T18:25:45.334Z,100383.13
2022-09-09T18:28:11.516Z,100385.19
2022-09-09T18:33:29.443Z,100389.63
2022-09-09T18:35:55.584Z,100403.84
2022-09-09T18:38:21.864Z,100409.03
2022-09-09T18:40:48.263Z,100401.34
2022-09-09T18:43:14.616Z,100422.00
2022-09-09T18:45:40.814Z,100410.34
2022-09-09T18:48:07.007Z,100422.63
2022-09-09T18:50:33.233Z,100412.72
2022-09-09T18:52:59.436Z,100414.94
2022-09-09T18:55:25.638Z,100412.81
2022-09-09T18:57:51.974Z,100415.66
2022-09-09T19:00:18.169Z,100414.72
2022-09-09T19:02:46.704Z,100413.50
2022-09-09T19:05:12.999Z,100414.66
2022-09-09T19:07:39.177Z,100414.53
2022-09-09T19:10:05.321Z,100422.53
2022-09-09T19:12:31.504Z,100424.03
2022-09-09T19:14:57.731Z,100420.53
2022-09-09T19:17:24.092Z,100422.53
2022-09-09T19:19:50.300Z,100430.31
2022-09-09T19:22:19.485Z,100433.78
2022-09-09T19:24:45.873Z,100423.91
2022-09-09T19:27:12.138Z,100425.34
2022-09-09T19:29:38.452Z,100416.38
2022-09-09T19:34:50.844Z,100416.19
2022-09-09T19:37:18.568Z,100402.81
2022-09-09T19:39:45.046Z,100400.00
2022-09-09T19:42:11.421Z,100401.91
2022-09-09T19:44:37.610Z,100398.41
2022-09-09T19:47:03.809Z,100402.81
2022-09-09T19:49:30.134Z,100404.22
2022-09-09T19:51:56.327Z,100405.97
2022-09-09T19:54:22.478Z,100408.81
2022-09-09T19:56:48.606Z,100420.53
2022-09-09T19:59:15.708Z,100440.72
2022-09-09T20:01:42.176Z,100437.06
2022-09-09T20:04:08.400Z,100452.19
2022-09-09T20:06:34.579Z,100458.41
2022-09-09T20:09:00.762Z,100456.47
2022-09-09T20:11:26.935Z,100453.13
2022-09-09T20:13:56.645Z,100454.81
2022-09-09T20:16:25.523Z,100458.19
2022-09-09T20:18:51.685Z,100444.75
2022-09-09T20:21:17.863Z,100442.88
2022-09-09T20:23:44.073Z,100445.31
2022-09-09T20:26:10.246Z,100436.47
2022-09-09T20:28:36.399Z,100440.69
2022-09-09T20:31:02.564Z,100437.09
2022-09-09T20:33:28.724Z,100444.88
2022-09-09T20:35:55.133Z,100444.97
2022-09-09T20:38:21.264Z,100442.88
2022-09-09T20:40:47.626Z,100440.59
2022-09-09T20:43:13.969Z,100444.78
2022-09-09T20:45:40.103Z,100453.50
2022-09-09T20:48:06.407Z,100457.19
2022-09-09T20:50:33.008Z,100453.72
2022-09-09T20:52:59.303Z,100444.97
2022-09-09T20:55:25.632Z,100451.31
2022-09-09T20:57:52.802Z,100449.59
2022-09-09T21:00:19.492Z,100426.38
2022-09-09T21:02:45.650Z,100436.34
2022-09-09T21:05:11.819Z,100435.31
2022-09-09T21:07:37.985Z,100445.84
2022-09-09T21:10:04.113Z,100440.38
2022-09-09T21:12:30.507Z,100448.25
2022-09-09T21:14:56.700Z,100440.38
2022-09-09T21:17:22.984Z,100445.53
2022-09-09T21:19:49.217Z,100445.41
2022-09-09T21:22:15.486Z,100450.66
2022-09-09T21:24:41.960Z,100443.84
2022-09-09T21:27:08.149Z,100436.81
2022-09-09T21:29:34.318Z,100435.97
2022-09-09T21:32:00.489Z,100431.75
2022-09-09T21:34:26.628Z,100428.41
2022-09-09T21:36:52.825Z,100422.81
2022-09-09T21:39:19.001Z,100423.75
2022-09-09T21:41:50.835Z,100420.72
2022-09-09T21:44:21.206Z,100417.03
2022-09-09T21:55:03.240Z,100417.13
2022-09-09T21:57:29.488Z,100417.53
2022-09-09T21:59:55.839Z,100423.38
2022-09-09T22:02:22.340Z,100426.13
2022-09-09T22:04:51.119Z,100427.34
2022-09-09T22:07:17.252Z,100417.91
2022-09-09T22:09:43.466Z,100423.22
2022-09-09T22:12:09.614Z,100427.94
2022-09-09T22:14:35.772Z,100421.13
2022-09-09T22:17:01.993Z,100427.22
2022-09-09T22:19:28.473Z,100433.59
2022-09-09T22:21:54.737Z,100430.34
2022-09-09T22:24:20.962Z,100433.06
2022-09-09T22:26:47.181Z,100438.41
2022-09-09T22:29:13.493Z,100435.91
2022-09-09T22:31:39.767Z,100445.00
2022-09-09T22:34:06.149Z,100443.13
2022-09-09T22:36:35.704Z,100447.34
2022-09-09T22:39:01.894Z,100448.16
2022-09-09T22:41:28.021Z,100447.16
2022-09-09T22:43:54.132Z,100443.47
2022-09-09T22:46:20.387Z,100441.91
2022-09-09T22:48:46.702Z,100441.69
2022-09-09T22:51:13.052Z,100440.03
2022-09-09T22:53:39.199Z,100441.78
2022-09-09T22:56:05.335Z,100440.94
2022-09-09T22:58:31.753Z,100447.69
2022-09-09T23:01:00.701Z,100449.25
2022-09-09T23:03:26.881Z,100441.47
2022-09-09T23:05:53.091Z,100439.59
2022-09-09T23:08:19.292Z,100442.44
2022-09-09T23:10:45.558Z,100434.47
2022-09-09T23:13:11.762Z,100440.72
2022-09-09T23:15:37.964Z,100439.81
2022-09-09T23:18:04.266Z,100446.09
2022-09-09T23:20:30.419Z,100441.16
2022-09-09T23:22:56.598Z,100450.69
2022-09-09T23:25:22.732Z,100453.16
2022-09-09T23:27:49.281Z,100455.84
2022-09-09T23:30:15.455Z,100444.72
2022-09-09T23:32:41.784Z,100453.44
2022-09-09T23:35:07.935Z,100451.56
2022-09-09T23:37:34.106Z,100454.06
2022-09-09T23:40:00.318Z,100452.69
2022-09-09T23:42:26.752Z,100449.22
2022-09-09T23:44:53.052Z,100450.25
2022-09-09T23:47:19.216Z,100442.38
2022-09-09T23:49:47.807Z,100444.19
2022-09-09T23:52:13.940Z,100449.59
2022-09-09T23:54:40.148Z,100449.59
2022-09-09T23:57:06.267Z,100445.00
2022-09-09T23:59:32.408Z,100448.59
